Sabinal, Texas
Current Conditions -  °F | °C
As of 1:35 AM on Thursday 23 Oct 2014 (Local Time) from KUVA Reporting Station
Light Rain Light Rain  
Wind Chill: 68°   Ceiling: 3700
Heat Index: 68°   Visibility: 7mi
Dew Point: 65°   Wind: 7mph
Humidity: 89%   Direction: 130°SE
Pressure: 30.08"   Gusts: NA
Location:  29.32°N, 99.47°W
Report Text: KUVA 230635Z AUTO 13006KT 7SM -RA SCT025 BKN037 OVC050 20/18 A3008 RMK AO2 P0004 T02000182
Loading
Personal Weather Stations






























Interactive Weather Map
Tropical Storm Tracking
New forecast layout! Learn more

10-Day Weather Forecast

Advertisements
Track Severe Weather on mobile